createdAt,value
2019-01-18T00:02:13.725Z,60.83
2019-01-18T00:04:47.214Z,50.87
2019-01-18T00:07:21.868Z,57.83
2019-01-18T00:09:56.729Z,56.23
2019-01-18T00:12:30.464Z,59.37
2019-01-18T00:15:04.339Z,54.93
2019-01-18T00:17:37.917Z,58.80
2019-01-18T00:20:17.958Z,59.70
2019-01-18T00:22:51.951Z,70.65
2019-01-18T00:25:25.894Z,61.43
2019-01-18T00:27:59.483Z,64.63
2019-01-18T00:30:33.195Z,57.47
2019-01-18T00:33:06.850Z,60.40
2019-01-18T00:35:40.472Z,61.60
2019-01-18T00:38:15.413Z,63.27
2019-01-18T00:40:48.903Z,63.98
2019-01-18T00:43:22.654Z,62.47
2019-01-18T00:45:56.293Z,57.80
2019-01-18T00:48:30.440Z,62.70
2019-01-18T00:51:04.305Z,62.98
2019-01-18T00:53:38.250Z,61.65
2019-01-18T00:56:12.267Z,67.70
2019-01-18T00:58:46.029Z,61.53
2019-01-18T01:01:20.648Z,60.73
2019-01-18T01:03:54.567Z,58.47
2019-01-18T01:06:28.139Z,61.02
2019-01-18T01:09:01.744Z,54.53
2019-01-18T01:11:37.503Z,57.95
2019-01-18T01:14:11.021Z,52.97
2019-01-18T01:16:49.373Z,64.27
2019-01-18T01:19:23.186Z,74.93
2019-01-18T01:21:57.148Z,66.33
2019-01-18T01:24:38.460Z,72.67
2019-01-18T01:27:12.303Z,65.00
2019-01-18T01:29:46.206Z,66.20
2019-01-18T01:32:20.893Z,67.43
2019-01-18T01:34:54.303Z,51.08
2019-01-18T01:37:29.500Z,54.97
2019-01-18T01:40:04.201Z,52.67
2019-01-18T01:42:38.541Z,67.67
2019-01-18T01:45:13.350Z,59.93
2019-01-18T01:47:48.064Z,65.17
2019-01-18T01:50:26.704Z,55.80
2019-01-18T01:53:00.638Z,58.40
2019-01-18T01:55:36.028Z,57.30
2019-01-18T01:58:10.118Z,54.50
2019-01-18T02:00:43.756Z,58.13
2019-01-18T02:03:18.564Z,63.23
2019-01-18T02:05:52.708Z,63.23
2019-01-18T02:08:26.906Z,57.67
2019-01-18T02:11:00.298Z,59.60
2019-01-18T02:13:33.901Z,65.47
2019-01-18T02:16:07.885Z,62.90
2019-01-18T02:18:41.554Z,61.37
2019-01-18T02:21:14.967Z,61.30
2019-01-18T02:23:48.731Z,60.40
2019-01-18T02:26:22.897Z,64.22
2019-01-18T02:28:56.503Z,65.37
2019-01-18T02:31:30.281Z,53.90
2019-01-18T02:34:04.000Z,63.60
2019-01-18T02:36:39.093Z,59.90
2019-01-18T02:39:13.280Z,76.77
2019-01-18T02:41:46.967Z,54.25
2019-01-18T02:44:20.910Z,55.67
2019-01-18T02:46:55.014Z,55.30
2019-01-18T02:49:28.548Z,63.43
2019-01-18T02:52:03.666Z,56.75
2019-01-18T02:54:37.396Z,61.07
2019-01-18T02:57:11.357Z,66.60
2019-01-18T02:59:45.334Z,65.17
2019-01-18T03:02:18.934Z,57.37
2019-01-18T03:04:54.338Z,54.08
2019-01-18T03:07:29.949Z,53.23
2019-01-18T03:10:04.696Z,53.80
2019-01-18T03:12:40.318Z,62.80
2019-01-18T03:15:16.754Z,51.30
2019-01-18T03:17:50.625Z,53.33
2019-01-18T03:20:24.275Z,51.93
2019-01-18T03:22:57.783Z,43.58
2019-01-18T03:25:31.652Z,50.30
2019-01-18T03:28:05.270Z,52.57
2019-01-18T03:30:46.585Z,51.03
2019-01-18T03:33:20.456Z,51.57
2019-01-18T03:35:57.783Z,53.90
2019-01-18T03:38:32.997Z,63.57
2019-01-18T03:41:07.593Z,60.40
2019-01-18T03:43:42.087Z,55.80
2019-01-18T03:46:16.107Z,49.80
2019-01-18T03:48:53.194Z,53.57
2019-01-18T03:51:26.706Z,55.15
2019-01-18T03:54:00.836Z,59.97
2019-01-18T03:56:34.647Z,54.33
2019-01-18T03:59:08.575Z,57.00
2019-01-18T04:01:44.803Z,50.07
2019-01-18T04:04:19.315Z,57.50
2019-01-18T04:06:53.112Z,53.57
2019-01-18T04:09:26.640Z,52.47
2019-01-18T04:12:00.728Z,53.20
2019-01-18T04:14:35.427Z,57.80
2019-01-18T04:17:09.390Z,61.10
2019-01-18T04:19:50.227Z,52.83
2019-01-18T04:22:24.456Z,54.15
2019-01-18T04:24:58.782Z,57.93
2019-01-18T04:27:32.653Z,58.40
2019-01-18T04:30:10.838Z,48.77
2019-01-18T04:32:45.527Z,45.40
2019-01-18T04:35:19.702Z,50.20
2019-01-18T04:37:54.989Z,56.00
2019-01-18T04:40:29.425Z,50.47
2019-01-18T04:43:03.353Z,51.93
2019-01-18T04:45:37.146Z,48.50
2019-01-18T04:48:13.530Z,45.40
2019-01-18T04:50:46.063Z,49.07
2019-01-18T04:53:19.802Z,47.33
2019-01-18T04:55:53.519Z,42.90
2019-01-18T04:58:29.786Z,50.97
2019-01-18T05:01:04.429Z,46.67
2019-01-18T05:03:38.433Z,45.97
2019-01-18T05:06:14.383Z,44.97
2019-01-18T05:08:49.699Z,35.90
2019-01-18T05:11:23.855Z,39.50
2019-01-18T05:13:58.221Z,47.37
2019-01-18T05:16:33.668Z,39.13
2019-01-18T05:19:07.090Z,31.07
2019-01-18T05:21:41.285Z,39.58
2019-01-18T05:24:16.254Z,39.53
2019-01-18T05:26:52.110Z,35.90
2019-01-18T05:29:28.600Z,41.87
2019-01-18T05:32:03.658Z,37.05
2019-01-18T05:34:38.339Z,39.77
2019-01-18T05:37:12.724Z,46.63
2019-01-18T05:39:47.391Z,41.57
2019-01-18T05:42:24.541Z,44.05
2019-01-18T05:45:01.428Z,40.83
2019-01-18T05:47:35.583Z,48.43
2019-01-18T05:50:15.171Z,52.63
2019-01-18T05:52:50.587Z,39.27
2019-01-18T05:55:25.734Z,45.80
2019-01-18T05:57:59.912Z,46.70
2019-01-18T06:00:35.126Z,41.30
2019-01-18T06:03:10.055Z,44.23
2019-01-18T06:05:44.514Z,33.50
2019-01-18T06:08:18.899Z,39.37
2019-01-18T06:10:52.761Z,42.53
2019-01-18T06:13:29.299Z,43.00
2019-01-18T06:16:04.215Z,43.33
2019-01-18T06:18:37.821Z,35.83
2019-01-18T06:21:12.549Z,52.27
2019-01-18T06:23:47.671Z,47.83
2019-01-18T06:26:21.315Z,41.48
2019-01-18T06:28:56.253Z,39.45
2019-01-18T06:31:29.938Z,35.05
2019-01-18T06:34:05.294Z,36.43
2019-01-18T06:36:39.362Z,47.47
2019-01-18T06:39:13.142Z,36.70
2019-01-18T06:41:50.506Z,51.03
2019-01-18T06:44:24.182Z,46.90
2019-01-18T06:46:58.071Z,51.93
2019-01-18T06:49:31.467Z,47.90
2019-01-18T06:52:06.049Z,55.17
2019-01-18T06:54:40.158Z,55.20
2019-01-18T06:57:14.481Z,50.33
2019-01-18T06:59:50.250Z,62.43
2019-01-18T07:02:24.194Z,51.67
2019-01-18T07:05:05.118Z,51.67
2019-01-18T07:07:38.878Z,64.77
2019-01-18T07:10:21.040Z,56.60
2019-01-18T07:12:54.257Z,55.13
2019-01-18T07:15:30.932Z,52.27
2019-01-18T07:18:29.798Z,57.25
2019-01-18T07:21:03.817Z,46.83
2019-01-18T07:23:39.860Z,56.90
2019-01-18T07:26:13.169Z,60.33
2019-01-18T07:28:46.934Z,65.83
2019-01-18T07:31:20.936Z,62.10
2019-01-18T07:33:54.824Z,55.00
2019-01-18T07:36:28.668Z,49.27
2019-01-18T07:39:02.710Z,53.13
2019-01-18T07:41:37.364Z,54.50
2019-01-18T07:44:17.916Z,50.38
2019-01-18T07:46:54.316Z,58.67
2019-01-18T07:49:31.169Z,51.87
2019-01-18T07:52:04.758Z,82.10
2019-01-18T07:54:41.301Z,62.27
2019-01-18T07:57:15.459Z,50.57
2019-01-18T07:59:50.424Z,54.77
2019-01-18T08:02:24.234Z,48.37
2019-01-18T08:05:06.461Z,52.07
2019-01-18T08:07:40.409Z,62.73
2019-01-18T08:10:19.575Z,53.20
2019-01-18T08:12:53.867Z,51.37
2019-01-18T08:15:35.116Z,58.97
2019-01-18T08:18:09.492Z,62.15
2019-01-18T08:20:44.025Z,54.60
2019-01-18T08:23:31.970Z,61.10
2019-01-18T08:26:06.852Z,47.57
2019-01-18T08:28:49.105Z,53.07
2019-01-18T08:31:28.684Z,61.77
2019-01-18T08:33:58.603Z,54.73
2019-01-18T08:36:36.257Z,53.10
2019-01-18T08:39:12.724Z,78.80
2019-01-18T08:41:56.298Z,61.53
2019-01-18T08:44:30.358Z,61.77
2019-01-18T08:47:05.570Z,53.17
2019-01-18T08:49:39.364Z,58.87
2019-01-18T08:52:13.150Z,56.70
2019-01-18T08:54:48.345Z,70.93
2019-01-18T08:57:22.008Z,61.13
2019-01-18T08:59:56.285Z,62.90
2019-01-18T09:02:30.162Z,55.90
2019-01-18T09:05:08.762Z,66.30
2019-01-18T09:07:39.942Z,63.53
2019-01-18T09:10:21.745Z,61.20
2019-01-18T09:12:56.440Z,63.13
2019-01-18T09:15:38.624Z,68.83
2019-01-18T09:18:13.541Z,61.30
2019-01-18T09:20:47.418Z,64.03
2019-01-18T09:23:23.239Z,67.92
2019-01-18T09:25:58.012Z,74.03
2019-01-18T09:28:32.478Z,74.93
2019-01-18T09:31:07.596Z,72.07
2019-01-18T09:33:51.610Z,69.40
2019-01-18T09:36:28.709Z,68.67
2019-01-18T09:39:03.742Z,64.60
2019-01-18T09:41:40.031Z,72.30
2019-01-18T09:44:15.197Z,72.27
2019-01-18T09:46:50.698Z,70.67
2019-01-18T09:49:24.766Z,70.37
2019-01-18T09:52:00.614Z,77.27
2019-01-18T09:54:36.160Z,77.77
2019-01-18T09:57:13.722Z,74.00
2019-01-18T09:59:47.736Z,77.43
2019-01-18T10:02:25.134Z,71.73
2019-01-18T10:05:00.772Z,75.87
2019-01-18T10:07:35.182Z,73.47
2019-01-18T10:10:17.170Z,81.50
2019-01-18T10:12:52.224Z,71.62
2019-01-18T10:15:38.290Z,77.93
2019-01-18T10:18:22.457Z,71.70
2019-01-18T10:21:01.454Z,84.00
2019-01-18T10:23:45.548Z,79.17
2019-01-18T10:26:39.902Z,80.23
2019-01-18T10:29:17.906Z,84.40
2019-01-18T10:32:12.020Z,76.90
2019-01-18T10:34:55.878Z,77.17
2019-01-18T10:37:29.608Z,85.33
2019-01-18T10:40:05.521Z,73.20
2019-01-18T10:42:40.316Z,78.53
2019-01-18T10:45:18.931Z,87.97
2019-01-18T10:47:53.300Z,78.37
2019-01-18T10:50:30.618Z,78.50
2019-01-18T10:53:09.156Z,81.43
2019-01-18T10:55:43.415Z,77.93
2019-01-18T10:58:18.115Z,99.37
2019-01-18T11:00:57.896Z,81.17
2019-01-18T11:03:37.248Z,78.43
2019-01-18T11:06:16.156Z,82.50
2019-01-18T11:08:53.856Z,93.90
2019-01-18T11:11:31.034Z,89.87
2019-01-18T11:14:09.823Z,84.20
2019-01-18T11:16:43.700Z,81.43
2019-01-18T11:19:19.623Z,89.20
2019-01-18T11:21:55.027Z,89.50
2019-01-18T11:24:31.484Z,97.10
2019-01-18T11:27:07.839Z,97.05
2019-01-18T11:29:51.276Z,94.67
2019-01-18T11:32:27.889Z,88.97
2019-01-18T11:35:04.928Z,96.30
2019-01-18T11:37:44.591Z,92.60
2019-01-18T11:40:26.642Z,97.33
2019-01-18T11:43:02.433Z,94.22
2019-01-18T11:45:38.432Z,92.63
2019-01-18T11:48:13.995Z,90.23
2019-01-18T11:50:51.908Z,91.20
2019-01-18T11:53:29.176Z,90.00
2019-01-18T11:56:04.092Z,95.73
2019-01-18T11:58:45.244Z,81.97
2019-01-18T12:01:21.973Z,84.87
2019-01-18T12:04:01.307Z,99.47
2019-01-18T12:06:39.625Z,86.97
2019-01-18T12:09:14.804Z,78.37
2019-01-18T12:11:50.717Z,88.63
2019-01-18T12:14:26.165Z,82.13
2019-01-18T12:17:04.550Z,77.83
2019-01-18T12:19:40.501Z,85.05
2019-01-18T12:22:19.952Z,86.93
2019-01-18T12:24:55.730Z,85.57
2019-01-18T12:27:36.546Z,90.93
2019-01-18T12:30:16.189Z,89.20
2019-01-18T12:32:53.136Z,87.70
2019-01-18T12:35:32.528Z,83.63
2019-01-18T12:38:07.835Z,80.30
2019-01-18T12:40:45.022Z,77.77
2019-01-18T12:43:20.159Z,82.67
2019-01-18T12:45:55.700Z,83.78
2019-01-18T12:48:30.624Z,77.43
2019-01-18T12:51:05.606Z,91.23
2019-01-18T12:53:41.617Z,90.67
2019-01-18T12:56:17.072Z,82.22
2019-01-18T12:58:56.603Z,83.30
2019-01-18T13:01:32.462Z,78.90
2019-01-18T13:04:08.394Z,88.83
2019-01-18T13:06:44.679Z,85.70
2019-01-18T13:09:21.301Z,77.67
2019-01-18T13:12:01.073Z,75.70
2019-01-18T13:14:37.887Z,69.63
2019-01-18T13:17:13.285Z,75.53
2019-01-18T13:19:50.063Z,79.20
2019-01-18T13:22:30.321Z,71.07
2019-01-18T13:25:07.904Z,75.83
2019-01-18T13:27:44.345Z,73.50
2019-01-18T13:30:21.448Z,70.87
2019-01-18T13:33:03.916Z,71.77
2019-01-18T13:35:43.490Z,64.43
2019-01-18T13:38:23.232Z,67.03
2019-01-18T13:41:01.226Z,67.05
2019-01-18T13:43:41.126Z,74.17
2019-01-18T13:46:19.466Z,62.37
2019-01-18T13:48:54.848Z,68.07
2019-01-18T13:51:35.322Z,62.60
2019-01-18T13:54:11.595Z,60.20
2019-01-18T13:56:50.112Z,64.87
2019-01-18T13:59:26.071Z,70.57
2019-01-18T14:02:06.883Z,65.47
2019-01-18T14:04:46.859Z,66.55
2019-01-18T14:07:21.588Z,66.75
2019-01-18T14:09:57.741Z,58.13
2019-01-18T14:12:32.565Z,62.97
2019-01-18T14:15:10.562Z,73.33
2019-01-18T14:17:48.221Z,63.20
2019-01-18T14:20:27.745Z,59.23
2019-01-18T14:23:02.655Z,69.80
2019-01-18T14:25:38.305Z,69.83
2019-01-18T14:28:15.705Z,63.17
2019-01-18T14:30:50.054Z,66.27
2019-01-18T14:33:25.647Z,59.73
2019-01-18T14:36:00.969Z,64.03
2019-01-18T14:38:36.984Z,72.07
2019-01-18T14:41:15.666Z,59.40
2019-01-18T14:43:47.912Z,74.53
2019-01-18T14:46:23.042Z,63.90
2019-01-18T14:48:57.620Z,68.62
2019-01-18T14:51:32.322Z,70.63
2019-01-18T14:54:07.033Z,71.25
2019-01-18T14:56:46.034Z,72.07
2019-01-18T14:59:23.089Z,73.90
2019-01-18T15:01:56.846Z,66.70
2019-01-18T15:04:30.858Z,73.27
2019-01-18T15:07:05.341Z,78.97
2019-01-18T15:09:39.869Z,74.37
2019-01-18T15:12:22.587Z,76.07
2019-01-18T15:14:56.052Z,78.90
2019-01-18T15:17:34.578Z,84.97
2019-01-18T15:20:06.890Z,75.63
2019-01-18T15:22:41.186Z,92.63
2019-01-18T15:25:14.889Z,86.73
2019-01-18T15:27:48.901Z,78.27
2019-01-18T15:30:29.643Z,79.30
2019-01-18T15:33:09.022Z,86.55
2019-01-18T15:35:41.159Z,84.14
2019-01-18T15:38:16.191Z,87.47
2019-01-18T15:40:50.373Z,94.93
2019-01-18T15:43:24.024Z,85.30
2019-01-18T15:45:58.790Z,91.97
2019-01-18T15:48:32.503Z,101.93
2019-01-18T15:51:07.064Z,103.40
2019-01-18T15:53:40.903Z,92.47
2019-01-18T15:56:15.040Z,81.65
2019-01-18T15:58:48.937Z,93.50
2019-01-18T16:01:23.025Z,88.50
2019-01-18T16:03:59.140Z,96.63
2019-01-18T16:06:36.068Z,101.20
2019-01-18T16:09:11.110Z,93.92
2019-01-18T16:11:46.641Z,89.28
2019-01-18T16:14:20.594Z,105.73
2019-01-18T16:16:54.323Z,98.03
2019-01-18T16:19:28.147Z,95.27
2019-01-18T16:22:05.597Z,79.50
2019-01-18T16:24:41.308Z,88.67
2019-01-18T16:27:15.352Z,83.85
2019-01-18T16:29:49.931Z,96.33
2019-01-18T16:32:26.781Z,92.57
2019-01-18T16:35:00.489Z,101.90
2019-01-18T16:37:36.560Z,92.82
2019-01-18T16:40:22.513Z,95.00
2019-01-18T16:43:02.017Z,96.40
2019-01-18T16:45:36.981Z,108.23
2019-01-18T16:48:11.727Z,105.52
2019-01-18T16:50:45.628Z,103.80
2019-01-18T16:53:19.773Z,112.13
2019-01-18T16:55:54.965Z,108.43
2019-01-18T16:58:29.146Z,104.13
2019-01-18T17:01:06.994Z,116.43
2019-01-18T17:03:41.951Z,100.33
2019-01-18T17:06:31.475Z,105.07
2019-01-18T17:09:15.744Z,102.90
2019-01-18T17:11:54.302Z,110.10
2019-01-18T17:14:32.213Z,110.47
2019-01-18T17:17:12.102Z,122.80
2019-01-18T17:19:45.643Z,112.77
2019-01-18T17:22:20.228Z,109.90
2019-01-18T17:24:54.335Z,94.37
2019-01-18T17:27:28.881Z,107.50
2019-01-18T17:30:02.837Z,108.03
2019-01-18T17:32:40.322Z,111.32
2019-01-18T17:35:19.185Z,119.50
2019-01-18T17:37:59.889Z,115.90
2019-01-18T17:40:37.030Z,115.77
2019-01-18T17:43:24.944Z,118.28
2019-01-18T17:46:28.614Z,110.28
2019-01-18T17:49:29.731Z,111.57
2019-01-18T17:52:23.912Z,118.03
2019-01-18T17:55:00.951Z,108.07
2019-01-18T17:58:04.503Z,111.30
2019-01-18T18:00:42.778Z,126.50
2019-01-18T18:03:43.476Z,113.28
2019-01-18T18:06:28.708Z,119.07
2019-01-18T18:09:23.529Z,128.67
2019-01-18T18:12:31.330Z,116.93
2019-01-18T18:15:25.565Z,119.53
2019-01-18T18:18:20.929Z,124.63
2019-01-18T18:21:35.582Z,155.60
2019-01-18T18:24:29.005Z,168.80
2019-01-18T18:27:22.098Z,160.57
2019-01-18T18:30:00.833Z,164.00
2019-01-18T18:32:57.797Z,177.67
2019-01-18T18:35:53.655Z,181.03
2019-01-18T18:39:07.016Z,198.07
2019-01-18T18:42:14.146Z,182.93
2019-01-18T18:45:04.575Z,179.00
2019-01-18T18:47:58.540Z,165.43
2019-01-18T18:51:04.981Z,188.15
2019-01-18T18:54:07.703Z,179.43
2019-01-18T18:56:47.615Z,172.58
2019-01-18T18:59:33.905Z,167.43
2019-01-18T19:02:29.486Z,164.17
2019-01-18T19:05:17.242Z,187.57
2019-01-18T19:08:15.644Z,194.63
2019-01-18T19:11:00.461Z,203.73
2019-01-18T19:14:01.703Z,229.00
2019-01-18T19:17:17.587Z,205.23
2019-01-18T19:20:06.030Z,189.17
2019-01-18T19:22:48.600Z,204.93
2019-01-18T19:25:32.999Z,196.82
2019-01-18T19:28:43.110Z,210.57
2019-01-18T19:31:53.683Z,201.07
2019-01-18T19:34:54.846Z,200.23
2019-01-18T19:37:49.053Z,207.93
2019-01-18T19:40:48.752Z,202.90
2019-01-18T19:44:02.806Z,216.83
2019-01-18T19:46:50.609Z,214.70
2019-01-18T19:49:58.357Z,213.00
2019-01-18T19:53:04.361Z,221.67
2019-01-18T19:56:00.851Z,212.43
2019-01-18T19:59:07.998Z,219.80
2019-01-18T20:01:58.996Z,217.13
2019-01-18T20:04:53.591Z,216.10
2019-01-18T20:07:48.294Z,221.67
2019-01-18T20:10:32.949Z,227.77
2019-01-18T20:13:26.832Z,207.57
2019-01-18T20:16:17.207Z,233.97
2019-01-18T20:19:23.613Z,218.97
2019-01-18T20:22:12.173Z,209.90
2019-01-18T20:25:31.069Z,209.33
2019-01-18T20:28:32.114Z,205.72
2019-01-18T20:31:08.115Z,207.60
2019-01-18T20:34:18.344Z,226.30
2019-01-18T20:37:12.346Z,204.30
2019-01-18T20:40:03.517Z,216.77
2019-01-18T20:42:51.841Z,238.63
2019-01-18T20:45:42.643Z,225.33
2019-01-18T20:48:27.849Z,215.63
2019-01-18T20:51:27.933Z,250.93
2019-01-18T20:54:18.436Z,217.23
2019-01-18T20:56:57.041Z,209.50
2019-01-18T20:59:39.431Z,226.67
2019-01-18T21:02:25.476Z,224.25
2019-01-18T21:05:11.512Z,241.30
2019-01-18T21:07:56.175Z,223.90
2019-01-18T21:10:35.020Z,237.50
2019-01-18T21:13:32.232Z,233.70
2019-01-18T21:16:31.030Z,255.97
2019-01-18T21:19:16.369Z,247.70
2019-01-18T21:22:17.570Z,252.65
2019-01-18T21:24:55.929Z,256.30
2019-01-18T21:27:58.436Z,246.87
2019-01-18T21:30:48.766Z,251.37
2019-01-18T21:33:39.318Z,265.68
2019-01-18T21:36:39.909Z,264.37
2019-01-18T21:39:21.191Z,251.15
2019-01-18T21:42:05.439Z,259.87
2019-01-18T21:44:55.994Z,250.97
2019-01-18T21:47:50.761Z,286.83
2019-01-18T21:50:35.519Z,267.53
2019-01-18T21:53:34.517Z,274.12
2019-01-18T21:56:19.545Z,289.90
2019-01-18T21:59:11.040Z,265.52
2019-01-18T22:01:57.593Z,277.93
2019-01-18T22:04:40.110Z,249.27
2019-01-18T22:07:19.295Z,262.93
2019-01-18T22:13:23.018Z,248.87
2019-01-18T22:16:24.254Z,270.43
2019-01-18T22:19:16.873Z,250.37
2019-01-18T22:22:24.085Z,250.25
2019-01-18T22:25:27.110Z,257.33
2019-01-18T22:28:24.196Z,226.40
2019-01-18T22:31:09.559Z,249.27
2019-01-18T22:33:49.933Z,254.33
2019-01-18T22:37:04.713Z,257.77
2019-01-18T22:40:15.033Z,273.50
2019-01-18T22:43:16.672Z,255.70
2019-01-18T22:46:05.037Z,241.13
2019-01-18T22:48:44.286Z,243.35
2019-01-18T22:51:20.378Z,241.23
2019-01-18T22:54:29.129Z,260.50
2019-01-18T22:57:07.782Z,265.43
2019-01-18T23:00:04.098Z,255.67
2019-01-18T23:03:00.663Z,240.97
2019-01-18T23:05:52.681Z,232.90
2019-01-18T23:09:08.795Z,243.93
2019-01-18T23:11:53.914Z,228.57
2019-01-18T23:14:53.866Z,215.27
2019-01-18T23:17:32.786Z,195.90
2019-01-18T23:20:29.741Z,207.63
2019-01-18T23:23:37.091Z,194.57
2019-01-18T23:26:29.861Z,193.20
2019-01-18T23:29:21.742Z,184.53
2019-01-18T23:32:24.710Z,180.37
2019-01-18T23:35:07.116Z,184.83
2019-01-18T23:38:08.443Z,196.17
2019-01-18T23:41:08.989Z,175.60
2019-01-18T23:43:52.345Z,184.17
2019-01-18T23:46:51.207Z,189.77
2019-01-18T23:49:54.735Z,194.57
2019-01-18T23:52:47.288Z,195.63
2019-01-18T23:55:32.775Z,208.25
2019-01-18T23:58:18.472Z,201.07
